sensor_id;sensor_type;location;lat;lon;timestamp;P1;durP1;ratioP1;P2;durP2;ratioP2
2416;SDS011;1219;48.736;9.330;2022-07-03T00:01:04;3.07;;;2.77;;
2416;SDS011;1219;48.736;9.330;2022-07-03T00:03:32;3.17;;;2.97;;
2416;SDS011;1219;48.736;9.330;2022-07-03T00:05:57;3.30;;;3.10;;
2416;SDS011;1219;48.736;9.330;2022-07-03T00:08:23;3.10;;;2.90;;
2416;SDS011;1219;48.736;9.330;2022-07-03T00:10:49;3.07;;;2.83;;
2416;SDS011;1219;48.736;9.330;2022-07-03T00:13:15;3.60;;;3.40;;
2416;SDS011;1219;48.736;9.330;2022-07-03T00:15:41;3.17;;;2.97;;
2416;SDS011;1219;48.736;9.330;2022-07-03T00:18:08;5.33;;;3.23;;
2416;SDS011;1219;48.736;9.330;2022-07-03T00:20:36;2.83;;;2.63;;
2416;SDS011;1219;48.736;9.330;2022-07-03T00:23:04;3.10;;;2.90;;
2416;SDS011;1219;48.736;9.330;2022-07-03T00:25:34;5.40;;;3.10;;
2416;SDS011;1219;48.736;9.330;2022-07-03T00:28:01;3.03;;;2.73;;
2416;SDS011;1219;48.736;9.330;2022-07-03T00:30:27;2.83;;;2.70;;
2416;SDS011;1219;48.736;9.330;2022-07-03T00:32:53;3.00;;;2.80;;
2416;SDS011;1219;48.736;9.330;2022-07-03T00:35:19;6.77;;;2.93;;
2416;SDS011;1219;48.736;9.330;2022-07-03T00:37:45;3.10;;;2.90;;
2416;SDS011;1219;48.736;9.330;2022-07-03T00:40:11;3.37;;;3.17;;
2416;SDS011;1219;48.736;9.330;2022-07-03T00:42:38;3.63;;;3.17;;
2416;SDS011;1219;48.736;9.330;2022-07-03T00:45:06;3.27;;;3.07;;
2416;SDS011;1219;48.736;9.330;2022-07-03T00:47:32;2.80;;;2.60;;
2416;SDS011;1219;48.736;9.330;2022-07-03T00:50:00;3.40;;;3.20;;
2416;SDS011;1219;48.736;9.330;2022-07-03T00:52:30;3.00;;;2.50;;
2416;SDS011;1219;48.736;9.330;2022-07-03T00:54:58;4.67;;;2.60;;
2416;SDS011;1219;48.736;9.330;2022-07-03T00:57:25;3.20;;;3.00;;
2416;SDS011;1219;48.736;9.330;2022-07-03T00:59:51;4.23;;;3.17;;
2416;SDS011;1219;48.736;9.330;2022-07-03T01:07:37;3.53;;;3.23;;
2416;SDS011;1219;48.736;9.330;2022-07-03T01:20:49;3.10;;;2.90;;
2416;SDS011;1219;48.736;9.330;2022-07-03T01:23:31;3.63;;;3.43;;
2416;SDS011;1219;48.736;9.330;2022-07-03T01:26:01;3.13;;;2.93;;
2416;SDS011;1219;48.736;9.330;2022-07-03T01:28:29;3.30;;;3.10;;
2416;SDS011;1219;48.736;9.330;2022-07-03T01:30:57;6.07;;;3.20;;
2416;SDS011;1219;48.736;9.330;2022-07-03T01:33:27;3.07;;;2.87;;
2416;SDS011;1219;48.736;9.330;2022-07-03T01:38:21;2.90;;;2.70;;
2416;SDS011;1219;48.736;9.330;2022-07-03T01:40:47;3.67;;;3.37;;
2416;SDS011;1219;48.736;9.330;2022-07-03T01:43:14;3.10;;;2.73;;
2416;SDS011;1219;48.736;9.330;2022-07-03T01:45:44;2.90;;;2.70;;
2416;SDS011;1219;48.736;9.330;2022-07-03T01:48:11;3.20;;;3.00;;
2416;SDS011;1219;48.736;9.330;2022-07-03T01:50:38;4.63;;;2.60;;
2416;SDS011;1219;48.736;9.330;2022-07-03T01:53:05;3.03;;;2.83;;
2416;SDS011;1219;48.736;9.330;2022-07-03T01:55:32;3.83;;;3.00;;
2416;SDS011;1219;48.736;9.330;2022-07-03T01:57:58;4.07;;;3.13;;
2416;SDS011;1219;48.736;9.330;2022-07-03T02:00:24;4.50;;;3.60;;
2416;SDS011;1219;48.736;9.330;2022-07-03T02:11:01;2.97;;;2.77;;
2416;SDS011;1219;48.736;9.330;2022-07-03T02:13:28;3.20;;;3.00;;
2416;SDS011;1219;48.736;9.330;2022-07-03T02:15:56;3.23;;;2.93;;
2416;SDS011;1219;48.736;9.330;2022-07-03T02:18:33;3.53;;;3.33;;
2416;SDS011;1219;48.736;9.330;2022-07-03T02:21:06;3.07;;;2.80;;
2416;SDS011;1219;48.736;9.330;2022-07-03T02:23:36;3.70;;;3.40;;
2416;SDS011;1219;48.736;9.330;2022-07-03T02:26:05;3.33;;;3.10;;
2416;SDS011;1219;48.736;9.330;2022-07-03T02:31:02;3.30;;;3.10;;
2416;SDS011;1219;48.736;9.330;2022-07-03T02:33:31;3.20;;;3.00;;
2416;SDS011;1219;48.736;9.330;2022-07-03T02:35:57;4.03;;;3.67;;
2416;SDS011;1219;48.736;9.330;2022-07-03T02:38:23;5.70;;;3.00;;
2416;SDS011;1219;48.736;9.330;2022-07-03T02:41:02;4.40;;;3.20;;
2416;SDS011;1219;48.736;9.330;2022-07-03T02:46:05;3.30;;;3.00;;
2416;SDS011;1219;48.736;9.330;2022-07-03T02:48:54;3.33;;;3.13;;
2416;SDS011;1219;48.736;9.330;2022-07-03T02:51:23;4.03;;;3.30;;
2416;SDS011;1219;48.736;9.330;2022-07-03T02:53:56;3.90;;;3.60;;
2416;SDS011;1219;48.736;9.330;2022-07-03T02:56:43;4.30;;;4.00;;
2416;SDS011;1219;48.736;9.330;2022-07-03T02:59:54;3.00;;;2.80;;
2416;SDS011;1219;48.736;9.330;2022-07-03T03:02:07;3.47;;;3.17;;
2416;SDS011;1219;48.736;9.330;2022-07-03T03:04:37;4.13;;;3.50;;
2416;SDS011;1219;48.736;9.330;2022-07-03T03:07:14;6.13;;;3.50;;
2416;SDS011;1219;48.736;9.330;2022-07-03T03:09:41;5.00;;;3.00;;
2416;SDS011;1219;48.736;9.330;2022-07-03T03:12:07;3.57;;;3.37;;
2416;SDS011;1219;48.736;9.330;2022-07-03T03:14:37;3.67;;;3.30;;
2416;SDS011;1219;48.736;9.330;2022-07-03T03:17:05;3.63;;;2.80;;
2416;SDS011;1219;48.736;9.330;2022-07-03T03:19:31;3.10;;;2.90;;
2416;SDS011;1219;48.736;9.330;2022-07-03T03:24:45;3.30;;;3.10;;
2416;SDS011;1219;48.736;9.330;2022-07-03T03:27:11;4.10;;;3.27;;
2416;SDS011;1219;48.736;9.330;2022-07-03T03:29:37;3.87;;;3.10;;
2416;SDS011;1219;48.736;9.330;2022-07-03T03:32:04;3.37;;;2.93;;
2416;SDS011;1219;48.736;9.330;2022-07-03T03:34:31;3.20;;;2.90;;
2416;SDS011;1219;48.736;9.330;2022-07-03T03:36:57;3.07;;;2.77;;
2416;SDS011;1219;48.736;9.330;2022-07-03T03:39:24;3.60;;;3.27;;
2416;SDS011;1219;48.736;9.330;2022-07-03T03:41:50;3.70;;;3.40;;
2416;SDS011;1219;48.736;9.330;2022-07-03T03:44:17;3.77;;;3.47;;
2416;SDS011;1219;48.736;9.330;2022-07-03T03:46:43;3.50;;;3.20;;
2416;SDS011;1219;48.736;9.330;2022-07-03T03:49:09;4.83;;;3.83;;
2416;SDS011;1219;48.736;9.330;2022-07-03T03:51:35;6.20;;;3.13;;
2416;SDS011;1219;48.736;9.330;2022-07-03T03:54:01;3.30;;;3.00;;
2416;SDS011;1219;48.736;9.330;2022-07-03T03:56:29;3.00;;;2.80;;
2416;SDS011;1219;48.736;9.330;2022-07-03T03:58:55;3.60;;;3.30;;
2416;SDS011;1219;48.736;9.330;2022-07-03T04:01:21;3.80;;;2.70;;
2416;SDS011;1219;48.736;9.330;2022-07-03T04:03:47;3.37;;;3.17;;
2416;SDS011;1219;48.736;9.330;2022-07-03T04:06:13;3.73;;;3.43;;
2416;SDS011;1219;48.736;9.330;2022-07-03T04:08:39;3.23;;;3.03;;
2416;SDS011;1219;48.736;9.330;2022-07-03T04:11:05;4.70;;;4.10;;
2416;SDS011;1219;48.736;9.330;2022-07-03T04:13:31;3.13;;;2.93;;
2416;SDS011;1219;48.736;9.330;2022-07-03T04:15:57;3.40;;;3.20;;
2416;SDS011;1219;48.736;9.330;2022-07-03T04:18:23;2.93;;;2.73;;
2416;SDS011;1219;48.736;9.330;2022-07-03T04:20:49;4.90;;;4.50;;
2416;SDS011;1219;48.736;9.330;2022-07-03T04:23:15;3.40;;;3.10;;
2416;SDS011;1219;48.736;9.330;2022-07-03T04:25:41;6.03;;;3.50;;
2416;SDS011;1219;48.736;9.330;2022-07-03T04:28:07;3.33;;;3.13;;
2416;SDS011;1219;48.736;9.330;2022-07-03T04:30:33;3.93;;;3.10;;
2416;SDS011;1219;48.736;9.330;2022-07-03T04:32:59;4.00;;;3.70;;
2416;SDS011;1219;48.736;9.330;2022-07-03T04:35:25;3.10;;;2.90;;
2416;SDS011;1219;48.736;9.330;2022-07-03T04:37:51;3.23;;;3.03;;
2416;SDS011;1219;48.736;9.330;2022-07-03T04:40:17;3.47;;;3.27;;
2416;SDS011;1219;48.736;9.330;2022-07-03T04:42:43;3.03;;;2.83;;
2416;SDS011;1219;48.736;9.330;2022-07-03T04:45:09;3.40;;;3.10;;
2416;SDS011;1219;48.736;9.330;2022-07-03T04:47:35;3.70;;;3.00;;
2416;SDS011;1219;48.736;9.330;2022-07-03T04:50:01;3.10;;;2.90;;
2416;SDS011;1219;48.736;9.330;2022-07-03T04:52:27;3.70;;;2.80;;
2416;SDS011;1219;48.736;9.330;2022-07-03T04:54:53;2.90;;;2.60;;
2416;SDS011;1219;48.736;9.330;2022-07-03T04:57:19;4.40;;;3.23;;
2416;SDS011;1219;48.736;9.330;2022-07-03T04:59:45;3.77;;;2.97;;
2416;SDS011;1219;48.736;9.330;2022-07-03T05:02:11;3.90;;;3.30;;
2416;SDS011;1219;48.736;9.330;2022-07-03T05:04:37;2.60;;;2.40;;
2416;SDS011;1219;48.736;9.330;2022-07-03T05:07:03;3.40;;;3.07;;
2416;SDS011;1219;48.736;9.330;2022-07-03T05:09:30;3.90;;;3.60;;
2416;SDS011;1219;48.736;9.330;2022-07-03T05:11:55;3.70;;;3.40;;
2416;SDS011;1219;48.736;9.330;2022-07-03T05:14:21;3.37;;;2.83;;
2416;SDS011;1219;48.736;9.330;2022-07-03T05:16:47;3.00;;;2.80;;
2416;SDS011;1219;48.736;9.330;2022-07-03T05:19:13;4.13;;;3.67;;
2416;SDS011;1219;48.736;9.330;2022-07-03T05:21:39;3.27;;;3.03;;
2416;SDS011;1219;48.736;9.330;2022-07-03T05:24:05;3.03;;;2.83;;
2416;SDS011;1219;48.736;9.330;2022-07-03T05:26:31;3.90;;;3.60;;
2416;SDS011;1219;48.736;9.330;2022-07-03T05:28:57;3.90;;;3.60;;
2416;SDS011;1219;48.736;9.330;2022-07-03T05:31:23;3.53;;;3.23;;
2416;SDS011;1219;48.736;9.330;2022-07-03T05:33:49;3.60;;;3.30;;
2416;SDS011;1219;48.736;9.330;2022-07-03T05:36:15;3.43;;;3.23;;
2416;SDS011;1219;48.736;9.330;2022-07-03T05:38:41;3.30;;;2.90;;
2416;SDS011;1219;48.736;9.330;2022-07-03T05:41:26;3.70;;;3.40;;
2416;SDS011;1219;48.736;9.330;2022-07-03T05:43:52;3.10;;;2.90;;
2416;SDS011;1219;48.736;9.330;2022-07-03T05:46:18;3.17;;;2.97;;
2416;SDS011;1219;48.736;9.330;2022-07-03T05:48:44;3.27;;;3.07;;
2416;SDS011;1219;48.736;9.330;2022-07-03T05:51:09;3.77;;;3.47;;
2416;SDS011;1219;48.736;9.330;2022-07-03T05:53:35;3.03;;;2.83;;
2416;SDS011;1219;48.736;9.330;2022-07-03T05:56:01;3.03;;;2.40;;
2416;SDS011;1219;48.736;9.330;2022-07-03T05:58:27;3.20;;;2.60;;
2416;SDS011;1219;48.736;9.330;2022-07-03T06:00:53;2.60;;;2.40;;
2416;SDS011;1219;48.736;9.330;2022-07-03T06:03:19;2.70;;;2.50;;
2416;SDS011;1219;48.736;9.330;2022-07-03T06:05:45;2.83;;;2.60;;
2416;SDS011;1219;48.736;9.330;2022-07-03T06:08:11;2.70;;;2.50;;
2416;SDS011;1219;48.736;9.330;2022-07-03T06:10:37;3.10;;;2.90;;
2416;SDS011;1219;48.736;9.330;2022-07-03T06:13:03;2.60;;;2.40;;
2416;SDS011;1219;48.736;9.330;2022-07-03T06:15:29;2.47;;;2.37;;
2416;SDS011;1219;48.736;9.330;2022-07-03T06:17:55;4.50;;;3.07;;
2416;SDS011;1219;48.736;9.330;2022-07-03T06:20:21;2.50;;;2.30;;
2416;SDS011;1219;48.736;9.330;2022-07-03T06:22:47;3.00;;;2.80;;
2416;SDS011;1219;48.736;9.330;2022-07-03T06:25:13;2.83;;;2.53;;
2416;SDS011;1219;48.736;9.330;2022-07-03T06:27:39;2.50;;;2.30;;
2416;SDS011;1219;48.736;9.330;2022-07-03T06:30:05;2.33;;;2.23;;
2416;SDS011;1219;48.736;9.330;2022-07-03T06:32:31;3.30;;;2.50;;
2416;SDS011;1219;48.736;9.330;2022-07-03T06:34:57;3.53;;;2.20;;
2416;SDS011;1219;48.736;9.330;2022-07-03T06:37:23;2.77;;;2.57;;
2416;SDS011;1219;48.736;9.330;2022-07-03T06:39:49;4.77;;;2.50;;
2416;SDS011;1219;48.736;9.330;2022-07-03T06:42:15;2.80;;;2.60;;
2416;SDS011;1219;48.736;9.330;2022-07-03T06:44:41;4.10;;;2.60;;
2416;SDS011;1219;48.736;9.330;2022-07-03T06:47:07;3.07;;;2.70;;
2416;SDS011;1219;48.736;9.330;2022-07-03T06:49:33;2.50;;;2.40;;
2416;SDS011;1219;48.736;9.330;2022-07-03T06:52:00;3.10;;;2.70;;
2416;SDS011;1219;48.736;9.330;2022-07-03T06:54:26;2.77;;;2.57;;
2416;SDS011;1219;48.736;9.330;2022-07-03T06:56:52;2.90;;;2.70;;
2416;SDS011;1219;48.736;9.330;2022-07-03T06:59:18;2.70;;;2.43;;
2416;SDS011;1219;48.736;9.330;2022-07-03T07:01:44;5.63;;;2.50;;
2416;SDS011;1219;48.736;9.330;2022-07-03T07:04:11;2.20;;;2.10;;
2416;SDS011;1219;48.736;9.330;2022-07-03T07:06:37;2.73;;;2.53;;
2416;SDS011;1219;48.736;9.330;2022-07-03T07:09:03;2.60;;;2.27;;
2416;SDS011;1219;48.736;9.330;2022-07-03T07:11:29;2.40;;;2.20;;
2416;SDS011;1219;48.736;9.330;2022-07-03T07:13:55;2.60;;;2.40;;
2416;SDS011;1219;48.736;9.330;2022-07-03T07:16:21;2.97;;;2.77;;
2416;SDS011;1219;48.736;9.330;2022-07-03T07:18:47;3.40;;;2.53;;
2416;SDS011;1219;48.736;9.330;2022-07-03T07:21:13;2.70;;;2.27;;
2416;SDS011;1219;48.736;9.330;2022-07-03T07:23:39;2.87;;;2.20;;
2416;SDS011;1219;48.736;9.330;2022-07-03T07:26:05;3.03;;;2.67;;
2416;SDS011;1219;48.736;9.330;2022-07-03T07:28:32;2.40;;;2.20;;
2416;SDS011;1219;48.736;9.330;2022-07-03T07:31:00;4.03;;;2.37;;
2416;SDS011;1219;48.736;9.330;2022-07-03T07:33:26;2.93;;;2.20;;
2416;SDS011;1219;48.736;9.330;2022-07-03T07:35:51;5.20;;;2.10;;
2416;SDS011;1219;48.736;9.330;2022-07-03T07:38:18;6.93;;;2.13;;
2416;SDS011;1219;48.736;9.330;2022-07-03T07:40:44;2.20;;;2.10;;
2416;SDS011;1219;48.736;9.330;2022-07-03T07:43:10;2.10;;;1.90;;
2416;SDS011;1219;48.736;9.330;2022-07-03T07:45:36;1.90;;;1.80;;
2416;SDS011;1219;48.736;9.330;2022-07-03T07:48:02;2.27;;;2.07;;
2416;SDS011;1219;48.736;9.330;2022-07-03T07:50:28;3.90;;;1.80;;
2416;SDS011;1219;48.736;9.330;2022-07-03T07:52:54;2.40;;;2.20;;
2416;SDS011;1219;48.736;9.330;2022-07-03T07:55:20;1.90;;;1.80;;
2416;SDS011;1219;48.736;9.330;2022-07-03T07:57:46;1.97;;;1.83;;
2416;SDS011;1219;48.736;9.330;2022-07-03T08:00:14;3.60;;;1.90;;
2416;SDS011;1219;48.736;9.330;2022-07-03T08:02:40;2.13;;;1.93;;
2416;SDS011;1219;48.736;9.330;2022-07-03T08:05:25;2.27;;;1.80;;
2416;SDS011;1219;48.736;9.330;2022-07-03T08:08:01;1.60;;;1.50;;
2416;SDS011;1219;48.736;9.330;2022-07-03T08:10:26;2.33;;;2.23;;
2416;SDS011;1219;48.736;9.330;2022-07-03T08:15:23;1.77;;;1.67;;
2416;SDS011;1219;48.736;9.330;2022-07-03T08:17:48;1.80;;;1.70;;
2416;SDS011;1219;48.736;9.330;2022-07-03T08:20:14;1.50;;;1.40;;
2416;SDS011;1219;48.736;9.330;2022-07-03T08:22:40;1.60;;;1.50;;
2416;SDS011;1219;48.736;9.330;2022-07-03T08:25:06;2.90;;;1.80;;
2416;SDS011;1219;48.736;9.330;2022-07-03T08:27:32;1.60;;;1.50;;
2416;SDS011;1219;48.736;9.330;2022-07-03T08:29:58;1.47;;;1.20;;
2416;SDS011;1219;48.736;9.330;2022-07-03T08:32:24;1.20;;;1.10;;
2416;SDS011;1219;48.736;9.330;2022-07-03T08:34:50;1.43;;;1.10;;
2416;SDS011;1219;48.736;9.330;2022-07-03T08:37:16;1.93;;;1.20;;
2416;SDS011;1219;48.736;9.330;2022-07-03T08:39:42;1.20;;;1.10;;
2416;SDS011;1219;48.736;9.330;2022-07-03T08:42:09;1.00;;;1.00;;
2416;SDS011;1219;48.736;9.330;2022-07-03T08:44:37;1.20;;;1.10;;
2416;SDS011;1219;48.736;9.330;2022-07-03T08:47:03;1.50;;;1.40;;
2416;SDS011;1219;48.736;9.330;2022-07-03T08:49:31;1.30;;;1.20;;
2416;SDS011;1219;48.736;9.330;2022-07-03T08:51:58;1.73;;;1.30;;
2416;SDS011;1219;48.736;9.330;2022-07-03T08:54:25;1.20;;;1.10;;
2416;SDS011;1219;48.736;9.330;2022-07-03T08:56:51;1.37;;;1.10;;
2416;SDS011;1219;48.736;9.330;2022-07-03T08:59:18;1.10;;;1.00;;
2416;SDS011;1219;48.736;9.330;2022-07-03T09:01:45;2.93;;;1.10;;
2416;SDS011;1219;48.736;9.330;2022-07-03T09:04:12;1.30;;;1.20;;
2416;SDS011;1219;48.736;9.330;2022-07-03T09:06:39;1.20;;;1.10;;
2416;SDS011;1219;48.736;9.330;2022-07-03T09:09:05;1.20;;;1.10;;
2416;SDS011;1219;48.736;9.330;2022-07-03T09:11:32;1.27;;;1.17;;
2416;SDS011;1219;48.736;9.330;2022-07-03T09:13:58;3.87;;;1.30;;
2416;SDS011;1219;48.736;9.330;2022-07-03T09:16:24;3.33;;;1.20;;
2416;SDS011;1219;48.736;9.330;2022-07-03T09:18:50;2.70;;;1.27;;
2416;SDS011;1219;48.736;9.330;2022-07-03T09:21:16;2.00;;;1.30;;
2416;SDS011;1219;48.736;9.330;2022-07-03T09:23:43;1.00;;;1.00;;
2416;SDS011;1219;48.736;9.330;2022-07-03T09:26:13;1.47;;;1.37;;
2416;SDS011;1219;48.736;9.330;2022-07-03T09:28:43;6.53;;;1.53;;
2416;SDS011;1219;48.736;9.330;2022-07-03T09:31:11;1.30;;;1.20;;
2416;SDS011;1219;48.736;9.330;2022-07-03T09:33:59;1.50;;;1.37;;
2416;SDS011;1219;48.736;9.330;2022-07-03T09:36:40;1.47;;;1.37;;
2416;SDS011;1219;48.736;9.330;2022-07-03T09:39:10;2.30;;;1.30;;
2416;SDS011;1219;48.736;9.330;2022-07-03T09:47:18;1.07;;;1.00;;
2416;SDS011;1219;48.736;9.330;2022-07-03T09:49:45;1.30;;;1.20;;
2416;SDS011;1219;48.736;9.330;2022-07-03T09:52:27;1.30;;;1.20;;
2416;SDS011;1219;48.736;9.330;2022-07-03T09:54:54;1.17;;;1.07;;
2416;SDS011;1219;48.736;9.330;2022-07-03T09:57:20;1.43;;;1.33;;
2416;SDS011;1219;48.736;9.330;2022-07-03T09:59:46;1.20;;;1.10;;
2416;SDS011;1219;48.736;9.330;2022-07-03T10:02:12;1.20;;;1.10;;
2416;SDS011;1219;48.736;9.330;2022-07-03T10:04:38;1.40;;;1.30;;
2416;SDS011;1219;48.736;9.330;2022-07-03T10:07:04;1.00;;;1.00;;
2416;SDS011;1219;48.736;9.330;2022-07-03T10:09:34;1.30;;;1.10;;
2416;SDS011;1219;48.736;9.330;2022-07-03T10:12:01;1.30;;;1.20;;
2416;SDS011;1219;48.736;9.330;2022-07-03T10:14:28;1.27;;;1.17;;
2416;SDS011;1219;48.736;9.330;2022-07-03T10:16:55;1.63;;;1.20;;
2416;SDS011;1219;48.736;9.330;2022-07-03T10:19:23;1.20;;;1.10;;
2416;SDS011;1219;48.736;9.330;2022-07-03T10:21:50;1.30;;;1.20;;
2416;SDS011;1219;48.736;9.330;2022-07-03T10:24:18;1.20;;;1.10;;
2416;SDS011;1219;48.736;9.330;2022-07-03T10:26:44;1.10;;;1.00;;
2416;SDS011;1219;48.736;9.330;2022-07-03T10:29:11;1.40;;;1.30;;
2416;SDS011;1219;48.736;9.330;2022-07-03T10:31:40;1.13;;;1.03;;
2416;SDS011;1219;48.736;9.330;2022-07-03T10:34:07;1.30;;;1.20;;
2416;SDS011;1219;48.736;9.330;2022-07-03T10:36:33;1.20;;;1.10;;
2416;SDS011;1219;48.736;9.330;2022-07-03T10:39:02;1.17;;;1.13;;
2416;SDS011;1219;48.736;9.330;2022-07-03T10:41:33;1.40;;;1.30;;
2416;SDS011;1219;48.736;9.330;2022-07-03T10:44:18;1.20;;;1.10;;
2416;SDS011;1219;48.736;9.330;2022-07-03T10:47:03;1.40;;;1.30;;
2416;SDS011;1219;48.736;9.330;2022-07-03T10:49:29;1.07;;;1.07;;
2416;SDS011;1219;48.736;9.330;2022-07-03T10:51:59;1.20;;;1.10;;
2416;SDS011;1219;48.736;9.330;2022-07-03T10:54:26;1.40;;;1.30;;
2416;SDS011;1219;48.736;9.330;2022-07-03T11:07:25;1.20;;;1.10;;
2416;SDS011;1219;48.736;9.330;2022-07-03T11:15:30;1.10;;;1.00;;
2416;SDS011;1219;48.736;9.330;2022-07-03T11:18:07;1.00;;;1.00;;
2416;SDS011;1219;48.736;9.330;2022-07-03T11:20:37;1.00;;;0.90;;
2416;SDS011;1219;48.736;9.330;2022-07-03T11:25:48;1.30;;;0.80;;
2416;SDS011;1219;48.736;9.330;2022-07-03T11:28:59;2.30;;;0.90;;
2416;SDS011;1219;48.736;9.330;2022-07-03T11:36:30;1.20;;;0.97;;
2416;SDS011;1219;48.736;9.330;2022-07-03T11:41:21;1.17;;;0.80;;
2416;SDS011;1219;48.736;9.330;2022-07-03T11:43:48;1.10;;;1.00;;
2416;SDS011;1219;48.736;9.330;2022-07-03T11:46:21;2.35;;;0.90;;
2416;SDS011;1219;48.736;9.330;2022-07-03T11:48:47;1.05;;;0.98;;
2416;SDS011;1219;48.736;9.330;2022-07-03T11:51:14;1.27;;;0.82;;
2416;SDS011;1219;48.736;9.330;2022-07-03T11:53:40;1.98;;;0.70;;
2416;SDS011;1219;48.736;9.330;2022-07-03T11:56:06;0.80;;;0.80;;
2416;SDS011;1219;48.736;9.330;2022-07-03T12:01:36;0.80;;;0.77;;
2416;SDS011;1219;48.736;9.330;2022-07-03T12:04:06;0.88;;;0.82;;
2416;SDS011;1219;48.736;9.330;2022-07-03T12:06:33;5.05;;;0.98;;
2416;SDS011;1219;48.736;9.330;2022-07-03T12:08:59;0.90;;;0.90;;
2416;SDS011;1219;48.736;9.330;2022-07-03T12:11:25;1.52;;;0.73;;
2416;SDS011;1219;48.736;9.330;2022-07-03T12:13:51;1.60;;;0.80;;
2416;SDS011;1219;48.736;9.330;2022-07-03T12:16:18;0.82;;;0.82;;
2416;SDS011;1219;48.736;9.330;2022-07-03T12:21:09;0.60;;;0.60;;
2416;SDS011;1219;48.736;9.330;2022-07-03T12:23:49;0.80;;;0.80;;
2416;SDS011;1219;48.736;9.330;2022-07-03T12:26:34;0.80;;;0.80;;
2416;SDS011;1219;48.736;9.330;2022-07-03T12:29:03;0.80;;;0.80;;
2416;SDS011;1219;48.736;9.330;2022-07-03T12:31:31;1.00;;;0.90;;
2416;SDS011;1219;48.736;9.330;2022-07-03T12:33:57;0.85;;;0.80;;
2416;SDS011;1219;48.736;9.330;2022-07-03T12:36:23;0.73;;;0.65;;
2416;SDS011;1219;48.736;9.330;2022-07-03T12:38:53;0.80;;;0.80;;
2416;SDS011;1219;48.736;9.330;2022-07-03T12:41:20;0.93;;;0.90;;
2416;SDS011;1219;48.736;9.330;2022-07-03T12:43:47;0.88;;;0.75;;
2416;SDS011;1219;48.736;9.330;2022-07-03T12:48:46;0.80;;;0.80;;
2416;SDS011;1219;48.736;9.330;2022-07-03T12:51:12;2.08;;;0.88;;
2416;SDS011;1219;48.736;9.330;2022-07-03T12:53:38;1.02;;;0.90;;
2416;SDS011;1219;48.736;9.330;2022-07-03T12:56:05;0.70;;;0.70;;
2416;SDS011;1219;48.736;9.330;2022-07-03T12:58:35;1.67;;;0.80;;
2416;SDS011;1219;48.736;9.330;2022-07-03T13:01:28;0.90;;;0.80;;
2416;SDS011;1219;48.736;9.330;2022-07-03T13:03:54;2.35;;;0.80;;
2416;SDS011;1219;48.736;9.330;2022-07-03T13:06:21;1.35;;;0.80;;
2416;SDS011;1219;48.736;9.330;2022-07-03T13:08:52;1.25;;;0.80;;
2416;SDS011;1219;48.736;9.330;2022-07-03T13:14:14;1.85;;;0.98;;
2416;SDS011;1219;48.736;9.330;2022-07-03T13:16:48;0.70;;;0.70;;
2416;SDS011;1219;48.736;9.330;2022-07-03T13:19:15;0.70;;;0.70;;
2416;SDS011;1219;48.736;9.330;2022-07-03T13:21:41;0.70;;;0.70;;
2416;SDS011;1219;48.736;9.330;2022-07-03T13:24:11;1.30;;;0.70;;
2416;SDS011;1219;48.736;9.330;2022-07-03T13:26:38;0.70;;;0.70;;
2416;SDS011;1219;48.736;9.330;2022-07-03T13:29:04;1.58;;;0.80;;
2416;SDS011;1219;48.736;9.330;2022-07-03T13:31:30;1.13;;;0.82;;
2416;SDS011;1219;48.736;9.330;2022-07-03T13:33:56;3.13;;;0.70;;
2416;SDS011;1219;48.736;9.330;2022-07-03T13:36:23;0.90;;;0.85;;
2416;SDS011;1219;48.736;9.330;2022-07-03T13:38:50;1.33;;;0.80;;
2416;SDS011;1219;48.736;9.330;2022-07-03T13:41:16;0.70;;;0.70;;
2416;SDS011;1219;48.736;9.330;2022-07-03T13:43:43;1.13;;;0.70;;
2416;SDS011;1219;48.736;9.330;2022-07-03T13:46:09;0.70;;;0.70;;
2416;SDS011;1219;48.736;9.330;2022-07-03T13:48:35;0.80;;;0.80;;
2416;SDS011;1219;48.736;9.330;2022-07-03T13:51:01;2.15;;;0.80;;
2416;SDS011;1219;48.736;9.330;2022-07-03T13:53:27;0.80;;;0.80;;
2416;SDS011;1219;48.736;9.330;2022-07-03T13:55:54;2.25;;;0.70;;
2416;SDS011;1219;48.736;9.330;2022-07-03T13:58:21;1.13;;;0.88;;
2416;SDS011;1219;48.736;9.330;2022-07-03T14:00:47;0.70;;;0.70;;
2416;SDS011;1219;48.736;9.330;2022-07-03T14:03:13;0.70;;;0.70;;
2416;SDS011;1219;48.736;9.330;2022-07-03T14:05:39;1.40;;;1.00;;
2416;SDS011;1219;48.736;9.330;2022-07-03T14:08:05;1.13;;;0.70;;
2416;SDS011;1219;48.736;9.330;2022-07-03T14:10:31;0.60;;;0.60;;
2416;SDS011;1219;48.736;9.330;2022-07-03T14:15:34;0.75;;;0.70;;
2416;SDS011;1219;48.736;9.330;2022-07-03T14:18:00;1.10;;;1.00;;
2416;SDS011;1219;48.736;9.330;2022-07-03T14:20:27;1.40;;;0.80;;
2416;SDS011;1219;48.736;9.330;2022-07-03T14:22:53;0.70;;;0.70;;
2416;SDS011;1219;48.736;9.330;2022-07-03T14:25:19;1.00;;;0.90;;
2416;SDS011;1219;48.736;9.330;2022-07-03T14:27:45;1.33;;;0.80;;
2416;SDS011;1219;48.736;9.330;2022-07-03T14:30:29;0.95;;;0.80;;
2416;SDS011;1219;48.736;9.330;2022-07-03T14:33:14;0.98;;;0.85;;
2416;SDS011;1219;48.736;9.330;2022-07-03T14:35:40;0.77;;;0.77;;
2416;SDS011;1219;48.736;9.330;2022-07-03T14:38:06;1.25;;;0.95;;
2416;SDS011;1219;48.736;9.330;2022-07-03T14:40:32;1.55;;;1.20;;
2416;SDS011;1219;48.736;9.330;2022-07-03T14:42:58;1.02;;;0.80;;
2416;SDS011;1219;48.736;9.330;2022-07-03T14:45:24;0.80;;;0.80;;
2416;SDS011;1219;48.736;9.330;2022-07-03T14:47:50;1.35;;;0.90;;
2416;SDS011;1219;48.736;9.330;2022-07-03T14:50:16;4.30;;;1.00;;
2416;SDS011;1219;48.736;9.330;2022-07-03T14:52:42;1.08;;;0.80;;
2416;SDS011;1219;48.736;9.330;2022-07-03T14:55:08;1.00;;;0.90;;
2416;SDS011;1219;48.736;9.330;2022-07-03T15:00:07;0.82;;;0.82;;
2416;SDS011;1219;48.736;9.330;2022-07-03T15:05:07;0.80;;;0.80;;
2416;SDS011;1219;48.736;9.330;2022-07-03T15:07:36;1.20;;;0.90;;
2416;SDS011;1219;48.736;9.330;2022-07-03T15:10:04;0.90;;;0.80;;
2416;SDS011;1219;48.736;9.330;2022-07-03T15:12:30;0.70;;;0.70;;
2416;SDS011;1219;48.736;9.330;2022-07-03T15:14:58;0.80;;;0.80;;
2416;SDS011;1219;48.736;9.330;2022-07-03T15:17:24;1.00;;;1.00;;
2416;SDS011;1219;48.736;9.330;2022-07-03T15:19:51;1.83;;;1.60;;
2416;SDS011;1219;48.736;9.330;2022-07-03T15:22:20;1.25;;;1.15;;
2416;SDS011;1219;48.736;9.330;2022-07-03T15:24:47;1.10;;;1.10;;
2416;SDS011;1219;48.736;9.330;2022-07-03T15:27:15;1.00;;;0.85;;
2416;SDS011;1219;48.736;9.330;2022-07-03T15:29:43;0.80;;;0.80;;
2416;SDS011;1219;48.736;9.330;2022-07-03T15:32:09;0.90;;;0.90;;
2416;SDS011;1219;48.736;9.330;2022-07-03T15:34:36;4.25;;;0.98;;
2416;SDS011;1219;48.736;9.330;2022-07-03T15:39:30;1.50;;;1.00;;
2416;SDS011;1219;48.736;9.330;2022-07-03T15:42:13;1.98;;;1.10;;
2416;SDS011;1219;48.736;9.330;2022-07-03T15:49:56;2.13;;;1.00;;
2416;SDS011;1219;48.736;9.330;2022-07-03T15:52:29;2.67;;;1.05;;
2416;SDS011;1219;48.736;9.330;2022-07-03T15:55:05;1.10;;;0.85;;
2416;SDS011;1219;48.736;9.330;2022-07-03T15:57:46;1.10;;;1.00;;
2416;SDS011;1219;48.736;9.330;2022-07-03T16:00:14;1.58;;;1.02;;
2416;SDS011;1219;48.736;9.330;2022-07-03T16:02:56;1.60;;;1.50;;
2416;SDS011;1219;48.736;9.330;2022-07-03T16:05:29;1.10;;;0.90;;
2416;SDS011;1219;48.736;9.330;2022-07-03T16:07:55;2.05;;;1.02;;
2416;SDS011;1219;48.736;9.330;2022-07-03T16:10:23;0.98;;;0.98;;
2416;SDS011;1219;48.736;9.330;2022-07-03T16:12:51;1.20;;;1.10;;
2416;SDS011;1219;48.736;9.330;2022-07-03T16:15:18;0.98;;;0.90;;
2416;SDS011;1219;48.736;9.330;2022-07-03T16:17:45;1.35;;;1.17;;
2416;SDS011;1219;48.736;9.330;2022-07-03T16:20:11;1.00;;;0.90;;
2416;SDS011;1219;48.736;9.330;2022-07-03T16:22:37;1.88;;;0.90;;
2416;SDS011;1219;48.736;9.330;2022-07-03T16:25:04;1.30;;;1.20;;
2416;SDS011;1219;48.736;9.330;2022-07-03T16:27:31;1.20;;;1.00;;
2416;SDS011;1219;48.736;9.330;2022-07-03T16:29:57;1.20;;;1.10;;
2416;SDS011;1219;48.736;9.330;2022-07-03T16:32:27;2.25;;;1.20;;
2416;SDS011;1219;48.736;9.330;2022-07-03T16:35:14;1.20;;;1.10;;
2416;SDS011;1219;48.736;9.330;2022-07-03T16:40:10;1.05;;;1.02;;
2416;SDS011;1219;48.736;9.330;2022-07-03T16:42:36;1.08;;;1.00;;
2416;SDS011;1219;48.736;9.330;2022-07-03T16:45:06;1.13;;;0.93;;
2416;SDS011;1219;48.736;9.330;2022-07-03T16:47:43;1.83;;;1.50;;
2416;SDS011;1219;48.736;9.330;2022-07-03T16:50:14;1.30;;;1.20;;
2416;SDS011;1219;48.736;9.330;2022-07-03T16:52:42;1.15;;;1.05;;
2416;SDS011;1219;48.736;9.330;2022-07-03T16:55:08;1.05;;;1.00;;
2416;SDS011;1219;48.736;9.330;2022-07-03T16:57:35;1.27;;;1.00;;